createdAt,value
2022-11-08T00:02:04.152Z,89.75
2022-11-08T00:04:50.792Z,142.25
2022-11-08T00:08:02.579Z,155.82
2022-11-08T00:11:26.896Z,121.93
2022-11-08T00:14:01.430Z,105.30
2022-11-08T00:16:29.639Z,107.65
2022-11-08T00:19:00.602Z,94.63
2022-11-08T00:21:30.638Z,80.72
2022-11-08T00:24:31.030Z,93.13
2022-11-08T00:27:16.671Z,115.78
2022-11-08T00:29:51.951Z,132.82
2022-11-08T00:32:24.892Z,173.88
2022-11-08T00:34:53.578Z,101.00
2022-11-08T00:37:22.125Z,136.88
2022-11-08T00:39:52.571Z,154.55
2022-11-08T00:42:22.484Z,168.30
2022-11-08T00:44:50.971Z,147.63
2022-11-08T00:47:22.435Z,148.77
2022-11-08T00:50:33.252Z,155.05
2022-11-08T00:53:01.413Z,139.23
2022-11-08T00:55:38.869Z,119.63
2022-11-08T00:58:06.905Z,103.22
2022-11-08T01:00:36.420Z,119.15
2022-11-08T01:03:20.673Z,70.90
2022-11-08T01:05:54.049Z,71.55
2022-11-08T01:08:22.880Z,79.88
2022-11-08T01:10:51.960Z,112.90
2022-11-08T01:13:19.968Z,119.78
2022-11-08T01:15:48.169Z,67.10
2022-11-08T01:18:17.481Z,75.55
2022-11-08T01:20:46.342Z,63.22
2022-11-08T01:23:21.416Z,60.38
2022-11-08T01:28:18.756Z,59.20
2022-11-08T01:30:48.191Z,51.22
2022-11-08T01:33:16.407Z,54.58
2022-11-08T01:35:46.558Z,56.60
2022-11-08T01:38:15.935Z,58.75
2022-11-08T01:40:53.885Z,52.83
2022-11-08T01:43:32.211Z,58.30
2022-11-08T01:46:19.240Z,58.25
2022-11-08T01:48:58.294Z,58.63
2022-11-08T01:51:30.672Z,58.10
2022-11-08T01:53:59.400Z,62.78
2022-11-08T01:56:27.471Z,57.47
2022-11-08T01:59:05.173Z,59.33
2022-11-08T02:01:42.484Z,67.40
2022-11-08T02:04:15.589Z,60.67
2022-11-08T02:06:43.924Z,58.47
2022-11-08T02:09:19.575Z,66.72
2022-11-08T02:11:49.291Z,65.05
2022-11-08T02:14:18.084Z,56.83
2022-11-08T02:16:47.838Z,63.35
2022-11-08T02:19:27.289Z,51.67
2022-11-08T02:21:58.367Z,48.03
2022-11-08T02:24:26.528Z,65.00
2022-11-08T02:27:03.938Z,56.17
2022-11-08T02:29:41.376Z,63.53
2022-11-08T02:32:11.305Z,58.17
2022-11-08T02:34:49.580Z,64.63
2022-11-08T02:37:22.037Z,58.05
2022-11-08T02:39:50.304Z,62.85
2022-11-08T02:42:20.219Z,57.65
2022-11-08T02:45:28.292Z,61.40
2022-11-08T02:47:57.682Z,56.30
2022-11-08T02:50:26.572Z,59.97
2022-11-08T02:52:55.219Z,58.50
2022-11-08T02:55:25.066Z,67.80
2022-11-08T02:58:01.120Z,46.53
2022-11-08T03:00:31.260Z,88.63
2022-11-08T03:03:02.768Z,78.07
2022-11-08T03:05:33.875Z,44.53
2022-11-08T03:08:09.568Z,50.05
2022-11-08T03:11:18.121Z,44.97
2022-11-08T03:13:53.073Z,61.88
2022-11-08T03:16:21.594Z,61.72
2022-11-08T03:18:49.570Z,171.13
2022-11-08T03:21:18.622Z,66.30
2022-11-08T03:23:50.710Z,84.20
2022-11-08T03:26:21.111Z,77.03
2022-11-08T03:28:49.393Z,75.53
2022-11-08T03:31:23.582Z,80.95
2022-11-08T03:33:56.058Z,96.00
2022-11-08T03:36:28.903Z,53.88
2022-11-08T03:38:57.152Z,113.15
2022-11-08T03:41:26.786Z,92.05
2022-11-08T03:43:59.363Z,66.43
2022-11-08T03:46:34.268Z,52.75
2022-11-08T03:49:06.476Z,48.90
2022-11-08T03:51:41.324Z,46.58
2022-11-08T03:54:15.895Z,49.63
2022-11-08T03:56:45.990Z,42.67
2022-11-08T03:59:16.312Z,56.55
2022-11-08T04:01:45.262Z,45.92
2022-11-08T04:04:21.892Z,54.75
2022-11-08T04:07:00.002Z,48.47
2022-11-08T04:09:28.789Z,48.67
2022-11-08T04:12:18.558Z,45.95
2022-11-08T04:15:06.652Z,48.92
2022-11-08T04:17:54.296Z,48.72
2022-11-08T04:20:41.904Z,49.53
2022-11-08T04:24:14.337Z,47.72
2022-11-08T04:26:44.703Z,48.20
2022-11-08T04:29:19.829Z,43.70
2022-11-08T04:31:48.159Z,47.33
2022-11-08T04:34:50.704Z,48.10
2022-11-08T04:37:24.761Z,46.90
2022-11-08T04:39:52.841Z,48.67
2022-11-08T04:42:20.649Z,43.13
2022-11-08T04:44:49.883Z,42.58
2022-11-08T04:48:29.600Z,52.67
2022-11-08T04:51:07.879Z,49.22
2022-11-08T04:53:36.253Z,44.55
2022-11-08T04:56:09.586Z,40.95
2022-11-08T04:58:39.606Z,51.17
2022-11-08T05:01:11.147Z,48.53
2022-11-08T05:03:44.883Z,45.38
2022-11-08T05:06:16.874Z,49.67
2022-11-08T05:08:47.821Z,53.13
2022-11-08T05:11:18.840Z,38.78
2022-11-08T05:13:47.813Z,44.35
2022-11-08T05:16:26.173Z,45.47
2022-11-08T05:18:54.586Z,49.60
2022-11-08T05:21:41.522Z,48.47
2022-11-08T05:24:49.662Z,51.13
2022-11-08T05:27:20.801Z,43.08
2022-11-08T05:29:51.439Z,49.15
2022-11-08T05:32:19.652Z,52.28
2022-11-08T05:34:47.768Z,44.97
2022-11-08T05:37:52.476Z,45.17
2022-11-08T05:40:30.641Z,44.40
2022-11-08T05:43:03.809Z,42.67
2022-11-08T05:45:39.015Z,45.10
2022-11-08T05:48:08.300Z,43.30
2022-11-08T05:50:41.525Z,47.53
2022-11-08T05:53:16.848Z,46.05
2022-11-08T05:55:45.515Z,44.88
2022-11-08T05:58:13.876Z,46.47
2022-11-08T06:00:45.900Z,50.83
2022-11-08T06:03:16.825Z,47.90
2022-11-08T06:06:11.652Z,51.28
2022-11-08T06:08:40.953Z,51.85
2022-11-08T06:11:15.167Z,44.80
2022-11-08T06:13:44.166Z,55.13
2022-11-08T06:16:20.815Z,59.00
2022-11-08T06:19:00.825Z,47.60
2022-11-08T06:21:32.617Z,55.17
2022-11-08T06:24:03.968Z,49.97
2022-11-08T06:26:36.212Z,53.42
2022-11-08T06:29:08.094Z,55.30
2022-11-08T06:31:41.896Z,52.63
2022-11-08T06:34:13.128Z,51.50
2022-11-08T06:36:43.837Z,51.78
2022-11-08T06:39:36.436Z,55.10
2022-11-08T06:42:04.975Z,60.95
2022-11-08T06:44:45.322Z,57.28
2022-11-08T06:53:32.443Z,70.15
2022-11-08T06:56:02.340Z,77.32
2022-11-08T06:58:33.011Z,73.10
2022-11-08T07:01:29.850Z,89.07
2022-11-08T07:04:33.969Z,88.10
2022-11-08T07:07:16.413Z,89.90
2022-11-08T07:09:49.233Z,87.97
2022-11-08T07:13:53.363Z,90.72
2022-11-08T07:17:12.772Z,95.13
2022-11-08T07:20:34.004Z,91.00
2022-11-08T07:23:44.325Z,97.90
2022-11-08T07:27:00.529Z,102.28
2022-11-08T07:29:36.044Z,92.28
2022-11-08T07:32:05.053Z,102.38
2022-11-08T07:34:41.014Z,95.95
2022-11-08T07:37:22.324Z,108.38
2022-11-08T07:40:30.409Z,92.18
2022-11-08T07:43:53.141Z,97.28
2022-11-08T07:47:35.610Z,106.10
2022-11-08T07:51:10.616Z,105.82
2022-11-08T07:53:46.212Z,100.35
2022-11-08T07:57:01.827Z,104.07
2022-11-08T07:59:38.687Z,89.03
2022-11-08T08:02:46.075Z,73.85
2022-11-08T08:05:31.773Z,78.43
2022-11-08T08:08:04.323Z,77.38
2022-11-08T08:11:38.640Z,81.18
2022-11-08T08:14:34.351Z,93.55
2022-11-08T08:17:23.266Z,84.28
2022-11-08T08:19:52.012Z,89.25
2022-11-08T08:22:25.592Z,83.40
2022-11-08T08:25:03.256Z,82.15
2022-11-08T08:28:20.707Z,70.97
2022-11-08T08:31:01.768Z,83.88
2022-11-08T08:33:33.577Z,68.90
2022-11-08T08:36:02.083Z,70.63
2022-11-08T08:38:32.463Z,77.55
2022-11-08T08:41:00.662Z,71.18
2022-11-08T08:43:32.613Z,71.68
2022-11-08T08:46:02.076Z,67.75
2022-11-08T08:48:33.573Z,66.10
2022-11-08T08:51:16.330Z,75.70
2022-11-08T08:53:50.185Z,72.95
2022-11-08T08:56:23.751Z,74.75
2022-11-08T09:01:49.447Z,61.80
2022-11-08T09:04:19.336Z,69.10
2022-11-08T09:06:48.421Z,74.13
2022-11-08T09:09:20.008Z,154.40
2022-11-08T09:11:56.887Z,71.82
2022-11-08T09:14:29.338Z,64.95
2022-11-08T09:16:58.498Z,59.70
2022-11-08T09:19:26.624Z,65.22
2022-11-08T09:21:55.053Z,66.72
2022-11-08T09:24:29.208Z,72.53
2022-11-08T09:27:05.266Z,67.85
2022-11-08T09:30:05.945Z,63.88
2022-11-08T09:35:31.379Z,67.18
2022-11-08T09:38:00.029Z,59.00
2022-11-08T09:40:54.403Z,56.17
2022-11-08T09:43:36.561Z,60.35
2022-11-08T09:47:38.280Z,58.80
2022-11-08T09:50:27.471Z,55.53
2022-11-08T09:53:48.153Z,67.78
2022-11-08T09:56:53.399Z,73.40
2022-11-08T09:59:36.463Z,88.22
2022-11-08T10:02:23.038Z,69.10
2022-11-08T10:05:13.023Z,72.70
2022-11-08T10:08:20.297Z,73.72
2022-11-08T10:11:17.047Z,80.43
2022-11-08T10:14:09.681Z,73.90
2022-11-08T10:17:04.843Z,75.30
2022-11-08T10:19:50.906Z,85.50
2022-11-08T10:22:38.661Z,74.50
2022-11-08T10:25:39.707Z,69.78
2022-11-08T10:28:09.704Z,83.68
2022-11-08T10:30:40.199Z,72.80
2022-11-08T10:33:34.289Z,78.75
2022-11-08T10:36:27.846Z,70.88
2022-11-08T10:39:12.155Z,78.47
2022-11-08T10:41:59.361Z,79.60
2022-11-08T10:44:28.191Z,71.05
2022-11-08T10:47:02.339Z,67.28
2022-11-08T10:49:55.574Z,78.50
2022-11-08T10:52:47.370Z,68.80
2022-11-08T10:55:33.715Z,74.90
2022-11-08T10:58:05.880Z,69.40
2022-11-08T11:00:38.739Z,76.82
2022-11-08T11:03:13.568Z,85.68
2022-11-08T11:05:54.970Z,72.15
2022-11-08T11:08:27.923Z,76.45
2022-11-08T11:10:56.862Z,73.90
2022-11-08T11:13:32.612Z,84.13
2022-11-08T11:16:05.534Z,72.30
2022-11-08T11:18:54.263Z,79.78
2022-11-08T11:21:35.500Z,81.88
2022-11-08T11:24:19.397Z,92.45
2022-11-08T11:27:16.818Z,95.15
2022-11-08T11:29:46.026Z,98.03
2022-11-08T11:32:40.598Z,92.10
2022-11-08T11:35:14.742Z,93.97
2022-11-08T11:37:48.736Z,86.82
2022-11-08T11:40:50.976Z,89.75
2022-11-08T11:43:48.392Z,85.72
2022-11-08T11:46:54.751Z,79.32
2022-11-08T11:49:24.277Z,75.83
2022-11-08T11:51:55.340Z,81.03
2022-11-08T11:54:31.574Z,80.90
2022-11-08T11:57:09.149Z,78.22
2022-11-08T12:00:06.692Z,63.20
2022-11-08T12:03:19.748Z,75.32
2022-11-08T12:06:19.071Z,74.68
2022-11-08T12:09:05.538Z,67.70
2022-11-08T12:12:08.471Z,61.90
2022-11-08T12:14:50.322Z,68.90
2022-11-08T12:17:22.916Z,63.65
2022-11-08T12:20:22.765Z,74.45
2022-11-08T12:23:31.993Z,64.10
2022-11-08T12:26:09.165Z,54.00
2022-11-08T12:28:47.298Z,61.13
2022-11-08T12:31:30.525Z,62.72
2022-11-08T12:34:42.841Z,69.45
2022-11-08T12:37:29.229Z,67.55
2022-11-08T12:40:20.459Z,68.15
2022-11-08T12:43:28.391Z,62.45
2022-11-08T12:46:19.161Z,65.40
2022-11-08T12:53:44.510Z,54.38
2022-11-08T12:56:29.758Z,52.47
2022-11-08T12:58:59.354Z,58.97
2022-11-08T13:01:46.084Z,63.40
2022-11-08T13:04:40.849Z,68.43
2022-11-08T13:07:36.154Z,66.78
2022-11-08T13:10:35.179Z,69.45
2022-11-08T13:13:53.668Z,74.63
2022-11-08T13:16:24.455Z,66.50
2022-11-08T13:18:56.482Z,63.90
2022-11-08T13:22:03.136Z,75.40
2022-11-08T13:24:45.514Z,63.47
2022-11-08T13:27:42.852Z,74.38
2022-11-08T13:35:58.793Z,64.90
2022-11-08T13:39:11.858Z,65.22
2022-11-08T13:42:43.270Z,70.07
2022-11-08T13:45:18.103Z,73.97
2022-11-08T13:48:25.272Z,81.93
2022-11-08T13:51:29.353Z,85.90
2022-11-08T13:54:25.038Z,111.47
2022-11-08T13:58:36.149Z,108.43
2022-11-08T14:02:42.750Z,120.97
2022-11-08T14:05:22.607Z,118.93
2022-11-08T14:08:08.274Z,104.03
2022-11-08T14:11:05.968Z,80.85
2022-11-08T14:13:59.102Z,93.18
2022-11-08T14:16:33.952Z,89.05
2022-11-08T14:19:21.693Z,89.72
2022-11-08T14:22:02.203Z,78.70
2022-11-08T14:24:38.253Z,83.35
2022-11-08T14:27:38.383Z,85.75
2022-11-08T14:30:19.009Z,101.05
2022-11-08T14:36:56.276Z,79.35
2022-11-08T14:39:35.229Z,81.55
2022-11-08T14:42:23.342Z,71.50
2022-11-08T14:44:56.144Z,80.85
2022-11-08T14:48:10.392Z,83.95
2022-11-08T14:51:03.670Z,73.85
2022-11-08T14:54:14.332Z,74.40
2022-11-08T14:56:46.689Z,82.32
2022-11-08T14:59:31.230Z,76.13
2022-11-08T15:03:34.899Z,82.43
2022-11-08T15:06:13.587Z,72.03
2022-11-08T15:09:03.106Z,73.93
2022-11-08T15:15:30.825Z,81.90
2022-11-08T15:18:35.641Z,82.72
2022-11-08T15:21:35.201Z,87.53
2022-11-08T15:24:41.564Z,85.82
2022-11-08T15:27:18.677Z,76.20
2022-11-08T15:30:08.787Z,84.30
2022-11-08T15:32:38.416Z,121.40
2022-11-08T15:35:18.432Z,126.75
2022-11-08T15:37:53.210Z,131.55
2022-11-08T15:40:29.900Z,147.60
2022-11-08T15:43:00.178Z,134.32
2022-11-08T15:45:33.873Z,121.95
2022-11-08T15:48:08.691Z,117.80
2022-11-08T15:50:37.044Z,123.40
2022-11-08T15:53:31.608Z,127.32
2022-11-08T15:56:53.533Z,113.65
2022-11-08T15:59:28.081Z,124.25
2022-11-08T16:02:12.291Z,100.93
2022-11-08T16:04:46.680Z,83.38
2022-11-08T16:07:16.858Z,108.47
2022-11-08T16:10:00.596Z,84.90
2022-11-08T16:13:02.097Z,88.40
2022-11-08T16:15:50.720Z,85.10
2022-11-08T16:18:21.979Z,94.43
2022-11-08T16:20:50.454Z,92.15
2022-11-08T16:23:52.087Z,101.45
2022-11-08T16:26:28.441Z,92.22
2022-11-08T16:29:03.170Z,98.53
2022-11-08T16:33:10.399Z,97.82
2022-11-08T16:35:48.370Z,97.25
2022-11-08T16:38:55.868Z,88.22
2022-11-08T16:41:32.992Z,94.95
2022-11-08T16:46:31.061Z,97.00
2022-11-08T16:49:00.967Z,89.72
2022-11-08T16:51:33.043Z,111.13
2022-11-08T16:54:04.061Z,103.95
2022-11-08T16:56:35.373Z,107.57
2022-11-08T16:59:08.562Z,119.35
2022-11-08T17:01:46.774Z,125.10
2022-11-08T17:04:26.851Z,138.73
2022-11-08T17:07:02.761Z,126.03
2022-11-08T17:09:35.260Z,135.50
2022-11-08T17:29:47.069Z,116.55
2022-11-08T17:32:18.697Z,122.15
2022-11-08T17:35:30.134Z,119.35
2022-11-08T17:38:23.435Z,130.43
2022-11-08T17:41:21.378Z,117.38
2022-11-08T17:43:51.691Z,119.82
2022-11-08T17:46:26.241Z,115.22
2022-11-08T17:49:01.075Z,127.43
2022-11-08T17:52:04.288Z,113.15
2022-11-08T17:57:38.822Z,135.13
2022-11-08T18:00:14.564Z,136.52
2022-11-08T18:02:49.207Z,140.30
2022-11-08T18:05:27.861Z,151.95
2022-11-08T18:08:02.889Z,145.05
2022-11-08T18:10:36.402Z,157.13
2022-11-08T18:13:26.845Z,180.30
2022-11-08T18:16:27.730Z,172.65
2022-11-08T18:18:59.290Z,181.63
2022-11-08T18:21:27.770Z,191.13
2022-11-08T18:24:07.305Z,194.60
2022-11-08T18:26:37.084Z,186.73
2022-11-08T18:29:05.675Z,202.88
2022-11-08T18:34:21.320Z,212.48
2022-11-08T18:37:01.475Z,206.05
2022-11-08T18:40:03.316Z,202.60
2022-11-08T18:42:39.747Z,197.13
2022-11-08T18:45:31.087Z,197.25
2022-11-08T18:48:03.574Z,186.52
2022-11-08T18:50:32.762Z,190.75
2022-11-08T18:53:16.655Z,163.32
2022-11-08T18:55:49.739Z,168.88
2022-11-08T18:58:24.999Z,165.00
2022-11-08T19:00:57.437Z,169.23
2022-11-08T19:03:26.841Z,166.57
2022-11-08T19:05:56.825Z,168.02
2022-11-08T19:08:33.501Z,161.65
2022-11-08T19:11:25.619Z,163.40
2022-11-08T19:13:59.674Z,153.85
2022-11-08T19:16:29.205Z,146.13
2022-11-08T19:19:17.986Z,159.07
2022-11-08T19:21:47.896Z,147.18
2022-11-08T19:24:24.015Z,154.93
2022-11-08T19:26:52.702Z,147.32
2022-11-08T19:29:21.513Z,151.60
2022-11-08T19:31:53.930Z,152.82
2022-11-08T19:34:24.304Z,153.30
2022-11-08T19:40:59.246Z,150.57
2022-11-08T19:43:43.679Z,129.02
2022-11-08T19:46:20.297Z,129.93
2022-11-08T19:49:11.580Z,123.57
2022-11-08T19:51:44.724Z,131.63
2022-11-08T19:54:13.048Z,128.05
2022-11-08T19:57:04.521Z,131.02
2022-11-08T19:59:59.078Z,116.95
2022-11-08T20:02:27.901Z,128.00
2022-11-08T20:05:17.343Z,121.90
2022-11-08T20:08:35.440Z,124.15
2022-11-08T20:11:40.553Z,163.60
2022-11-08T20:17:28.559Z,119.90
2022-11-08T20:21:00.007Z,117.28
2022-11-08T20:23:41.794Z,112.05
2022-11-08T20:26:43.460Z,128.38
2022-11-08T20:30:15.905Z,132.13
2022-11-08T20:33:18.160Z,126.43
2022-11-08T20:35:58.095Z,135.02
2022-11-08T20:38:31.190Z,138.77
2022-11-08T20:41:03.712Z,130.38
2022-11-08T20:43:40.855Z,124.50
2022-11-08T20:49:50.392Z,150.50
2022-11-08T20:52:40.922Z,125.53
2022-11-08T20:55:18.918Z,131.05
2022-11-08T20:57:47.975Z,131.73
2022-11-08T21:00:57.200Z,147.93
2022-11-08T21:03:27.329Z,147.93
2022-11-08T21:06:15.019Z,138.63
2022-11-08T21:09:48.422Z,148.32
2022-11-08T21:12:25.748Z,142.45
2022-11-08T21:15:17.385Z,127.00
2022-11-08T21:21:40.132Z,119.65
2022-11-08T21:24:36.586Z,121.05
2022-11-08T21:27:04.808Z,151.45
2022-11-08T21:30:05.493Z,129.70
2022-11-08T21:34:33.261Z,126.13
2022-11-08T21:37:49.068Z,113.03
2022-11-08T21:41:08.544Z,116.20
2022-11-08T21:43:48.101Z,111.55
2022-11-08T21:48:08.681Z,114.53
2022-11-08T21:52:01.902Z,121.38
2022-11-08T21:54:47.717Z,109.43
2022-11-08T21:57:31.692Z,109.35
2022-11-08T22:05:49.746Z,111.80
2022-11-08T22:08:21.622Z,113.50
2022-11-08T22:11:05.386Z,127.47
2022-11-08T22:14:15.619Z,136.27
2022-11-08T22:18:36.363Z,118.40
2022-11-08T22:22:00.344Z,124.43
2022-11-08T22:24:34.946Z,132.10
2022-11-08T22:27:12.988Z,119.70
2022-11-08T22:30:20.477Z,132.90
2022-11-08T22:32:52.931Z,126.95
2022-11-08T22:35:21.025Z,109.43
2022-11-08T22:37:53.318Z,123.47
2022-11-08T22:40:25.378Z,105.35
2022-11-08T22:43:03.769Z,115.85
2022-11-08T22:45:32.357Z,115.18
2022-11-08T22:48:02.336Z,102.57
2022-11-08T22:50:40.573Z,113.25
2022-11-08T22:53:12.677Z,110.20
2022-11-08T22:56:54.614Z,104.43
2022-11-08T22:59:24.952Z,116.90
2022-11-08T23:01:53.899Z,112.20
2022-11-08T23:04:23.953Z,118.97
2022-11-08T23:06:55.229Z,113.00
2022-11-08T23:09:24.076Z,118.53
2022-11-08T23:12:12.843Z,123.53
2022-11-08T23:15:02.819Z,120.88
2022-11-08T23:17:33.078Z,146.40
2022-11-08T23:20:26.704Z,135.00
2022-11-08T23:23:20.638Z,140.27
2022-11-08T23:25:57.109Z,151.48
2022-11-08T23:28:44.145Z,131.35
2022-11-08T23:31:37.849Z,134.90
2022-11-08T23:34:06.168Z,136.93
2022-11-08T23:36:37.300Z,124.03
2022-11-08T23:39:05.735Z,133.80
2022-11-08T23:41:55.243Z,135.23
2022-11-08T23:44:24.013Z,138.30
2022-11-08T23:46:52.947Z,120.85
2022-11-08T23:49:22.332Z,127.60
2022-11-08T23:51:58.098Z,126.53
2022-11-08T23:54:33.324Z,104.07
2022-11-08T23:57:03.079Z,113.13
2022-11-08T23:59:31.564Z,114.70
